createdAt,value
2023-05-09T00:00:57.742Z,3.79
2023-05-09T00:06:01.196Z,3.73
2023-05-09T00:11:04.351Z,3.68
2023-05-09T00:16:08.297Z,3.65
2023-05-09T00:21:11.640Z,3.61
2023-05-09T00:26:14.482Z,3.59
2023-05-09T00:31:17.210Z,3.54
2023-05-09T00:36:20.097Z,3.49
2023-05-09T00:41:22.900Z,3.41
2023-05-09T00:46:25.770Z,3.34
2023-05-09T00:51:28.776Z,3.28
2023-05-09T00:56:31.948Z,3.23
2023-05-09T01:01:34.875Z,3.23
2023-05-09T01:06:58.077Z,3.20
2023-05-09T01:12:09.986Z,3.14
2023-05-09T01:17:39.557Z,3.10
2023-05-09T01:22:49.994Z,3.04
2023-05-09T01:28:12.420Z,2.96
2023-05-09T01:33:18.292Z,2.88
2023-05-09T01:38:22.303Z,2.82
2023-05-09T01:43:27.546Z,2.78
2023-05-09T01:48:30.544Z,2.71
2023-05-09T01:53:33.511Z,2.67
2023-05-09T01:58:36.262Z,2.65
2023-05-09T02:03:39.108Z,2.60
2023-05-09T02:08:41.835Z,2.55
2023-05-09T02:13:44.894Z,2.51
2023-05-09T02:18:47.948Z,2.47
2023-05-09T02:23:50.694Z,2.41
2023-05-09T02:28:53.645Z,2.34
2023-05-09T02:33:56.844Z,2.33
2023-05-09T02:39:01.216Z,2.32
2023-05-09T02:44:05.366Z,2.34
2023-05-09T02:49:10.121Z,2.35
2023-05-09T02:54:13.374Z,2.34
2023-05-09T02:59:18.444Z,2.33
2023-05-09T03:04:23.115Z,2.31
2023-05-09T03:09:26.307Z,2.28
2023-05-09T03:14:29.110Z,2.26
2023-05-09T03:19:32.698Z,2.26
2023-05-09T03:24:35.508Z,2.24
2023-05-09T03:29:38.572Z,2.25
2023-05-09T03:34:41.754Z,2.28
2023-05-09T03:39:44.526Z,2.33
2023-05-09T03:44:47.707Z,2.40
2023-05-09T03:49:50.826Z,2.44
2023-05-09T03:54:53.842Z,2.50
2023-05-09T03:59:56.653Z,2.60
2023-05-09T04:05:01.708Z,2.69
2023-05-09T04:10:06.447Z,2.86
2023-05-09T04:15:11.184Z,3.05
2023-05-09T04:20:14.084Z,3.26
2023-05-09T04:34:05.422Z,3.65
2023-05-09T04:39:12.960Z,3.85
2023-05-09T05:21:59.420Z,5.81
2023-05-09T05:27:03.281Z,6.10
2023-05-09T05:32:07.693Z,6.35
2023-05-09T05:37:10.477Z,6.59
2023-05-09T05:43:53.528Z,6.82
2023-05-09T05:48:59.078Z,7.10
2023-05-09T06:01:24.305Z,7.63
2023-05-09T06:06:27.831Z,7.86
2023-05-09T06:11:30.847Z,8.11
2023-05-09T06:16:39.992Z,8.38
2023-05-09T06:21:42.812Z,8.61
2023-05-09T06:26:46.087Z,8.89
2023-05-09T06:31:49.222Z,9.17
2023-05-09T06:36:52.533Z,9.48
2023-05-09T06:41:55.322Z,9.76
2023-05-09T06:46:58.406Z,10.07
2023-05-09T06:52:02.753Z,10.34
2023-05-09T06:57:05.683Z,10.63
2023-05-09T07:02:08.870Z,10.90
2023-05-09T07:07:11.673Z,11.12
2023-05-09T07:12:14.385Z,11.33
2023-05-09T07:17:23.704Z,11.54
2023-05-09T07:22:28.785Z,11.79
2023-05-09T07:27:33.554Z,12.06
2023-05-09T07:32:36.479Z,12.34
2023-05-09T07:37:39.244Z,12.53
2023-05-09T07:42:49.495Z,12.62
2023-05-09T07:47:52.346Z,12.73
2023-05-09T07:52:55.785Z,12.86
2023-05-09T07:57:58.520Z,12.98
2023-05-09T08:03:01.554Z,13.19
2023-05-09T08:08:04.886Z,13.36
2023-05-09T08:13:07.717Z,13.52
2023-05-09T08:18:10.789Z,13.67
2023-05-09T08:23:13.870Z,13.88
2023-05-09T08:28:16.810Z,14.06
2023-05-09T08:33:19.537Z,14.10
2023-05-09T08:38:22.531Z,14.22
2023-05-09T08:43:46.076Z,14.46
2023-05-09T08:48:49.140Z,14.68
2023-05-09T08:53:52.037Z,14.86
2023-05-09T08:58:54.784Z,15.02
2023-05-09T09:03:57.641Z,15.18
2023-05-09T09:09:00.599Z,15.27
2023-05-09T09:14:18.592Z,15.35
2023-05-09T09:19:21.394Z,15.46
2023-05-09T09:24:24.664Z,15.60
2023-05-09T09:29:28.727Z,15.76
2023-05-09T09:34:31.829Z,15.87
2023-05-09T09:39:34.607Z,16.06
2023-05-09T09:44:37.355Z,16.36
2023-05-09T09:49:46.101Z,17.03
2023-05-09T09:54:48.996Z,17.90
2023-05-09T09:59:59.673Z,18.92
2023-05-09T10:05:09.307Z,19.91
2023-05-09T10:10:12.116Z,20.89
2023-05-09T10:15:18.728Z,21.72
2023-05-09T10:20:22.276Z,22.56
2023-05-09T10:25:40.666Z,23.40
2023-05-09T10:30:55.521Z,24.03
2023-05-09T12:19:51.112Z,36.51
2023-05-09T12:24:54.877Z,37.58
2023-05-09T12:29:57.746Z,38.30
2023-05-09T12:35:00.573Z,38.04
2023-05-09T12:40:13.044Z,38.30
2023-05-09T12:45:16.284Z,38.78
2023-05-09T12:50:19.525Z,39.00
2023-05-09T12:55:22.245Z,39.54
2023-05-09T13:00:25.498Z,39.78
2023-05-09T13:05:28.305Z,40.08
2023-05-09T13:10:31.052Z,40.40
2023-05-09T13:15:34.006Z,41.08
2023-05-09T13:20:36.842Z,40.88
2023-05-09T13:25:39.542Z,40.91
2023-05-09T13:30:42.338Z,40.57
2023-05-09T13:35:47.075Z,41.10
2023-05-09T13:40:51.639Z,41.22
2023-05-09T13:45:54.490Z,41.65
2023-05-09T13:50:59.592Z,42.12
2023-05-09T13:56:02.450Z,42.51
2023-05-09T14:01:05.455Z,42.36
2023-05-09T14:06:10.515Z,42.72
2023-05-09T14:11:13.730Z,42.96
2023-05-09T14:16:16.867Z,42.25
2023-05-09T14:21:19.684Z,42.11
2023-05-09T14:26:22.497Z,41.28
2023-05-09T14:31:25.413Z,40.89
2023-05-09T14:36:28.873Z,40.11
2023-05-09T14:41:31.819Z,39.71
2023-05-09T14:46:34.745Z,37.86
2023-05-09T14:51:37.744Z,33.61
2023-05-09T14:56:40.573Z,30.70
2023-05-09T15:01:43.624Z,28.90
2023-05-09T15:06:46.426Z,27.71
2023-05-09T15:11:49.498Z,26.49
2023-05-09T15:16:53.239Z,25.52
2023-05-09T15:21:56.038Z,24.64
2023-05-09T15:26:58.859Z,23.93
2023-05-09T15:32:01.567Z,23.24
2023-05-09T15:37:04.665Z,22.70
2023-05-09T15:42:08.920Z,22.34
2023-05-09T15:47:11.798Z,21.94
2023-05-09T15:52:14.909Z,21.53
2023-05-09T15:57:18.215Z,21.15
2023-05-09T16:02:22.277Z,20.74
2023-05-09T16:07:26.179Z,20.43
2023-05-09T16:12:29.337Z,20.12
2023-05-09T16:17:32.227Z,19.80
2023-05-09T16:22:34.998Z,19.53
2023-05-09T16:27:37.833Z,19.14
2023-05-09T16:32:40.696Z,18.86
2023-05-09T16:37:44.177Z,18.58
2023-05-09T16:42:47.204Z,18.27
2023-05-09T16:47:51.140Z,17.90
2023-05-09T16:52:54.273Z,17.56
2023-05-09T16:57:57.019Z,17.31
2023-05-09T17:02:59.861Z,16.99
2023-05-09T17:08:02.674Z,16.75
2023-05-09T17:13:08.583Z,16.53
2023-05-09T17:18:17.062Z,16.29
2023-05-09T17:23:22.238Z,16.03
2023-05-09T17:28:25.347Z,15.80
2023-05-09T17:33:28.219Z,15.55
2023-05-09T17:38:31.033Z,15.37
2023-05-09T17:43:34.309Z,15.17
2023-05-09T17:48:37.148Z,14.96
2023-05-09T17:53:39.987Z,14.74
2023-05-09T17:58:42.872Z,14.52
2023-05-09T18:03:46.315Z,14.28
2023-05-09T18:08:49.097Z,14.05
2023-05-09T18:13:51.897Z,13.80
2023-05-09T18:18:54.719Z,13.54
2023-05-09T18:23:57.729Z,13.30
2023-05-09T18:29:01.419Z,13.06
2023-05-09T18:34:05.655Z,12.84
2023-05-09T18:39:09.007Z,12.65
2023-05-09T18:44:11.783Z,12.46
2023-05-09T18:49:15.560Z,12.28
2023-05-09T18:54:18.376Z,12.09
2023-05-09T18:59:21.962Z,11.91
2023-05-09T19:04:25.334Z,11.68
2023-05-09T19:09:29.174Z,11.37
2023-05-09T19:14:32.198Z,11.09
2023-05-09T19:19:35.033Z,10.88
2023-05-09T19:24:37.902Z,10.75
2023-05-09T19:29:40.760Z,10.64
2023-05-09T19:34:43.676Z,10.53
2023-05-09T19:39:46.737Z,10.40
2023-05-09T19:44:52.308Z,10.30
2023-05-09T19:49:55.026Z,10.20
2023-05-09T19:54:57.843Z,10.09
2023-05-09T20:00:00.686Z,10.02
2023-05-09T20:05:03.799Z,9.92
2023-05-09T20:10:07.089Z,9.83
2023-05-09T20:15:10.309Z,9.73
2023-05-09T20:20:13.686Z,9.63
2023-05-09T20:25:16.827Z,9.54
2023-05-09T20:30:19.737Z,9.45
2023-05-09T20:35:23.077Z,9.36
2023-05-09T20:40:25.869Z,9.28
2023-05-09T20:45:28.740Z,9.21
2023-05-09T20:50:31.648Z,9.16
2023-05-09T20:55:34.764Z,9.11
2023-05-09T21:00:37.590Z,9.04
2023-05-09T21:05:40.846Z,8.94
2023-05-09T21:10:43.703Z,8.87
2023-05-09T21:15:50.346Z,8.77
2023-05-09T21:20:53.285Z,8.69
2023-05-09T21:25:56.106Z,8.60
2023-05-09T21:31:01.467Z,8.51
2023-05-09T21:36:04.625Z,8.42
2023-05-09T21:41:07.400Z,8.32
2023-05-09T21:46:10.418Z,8.21
2023-05-09T21:51:13.228Z,8.09
2023-05-09T21:56:15.923Z,7.99
2023-05-09T22:01:19.135Z,7.88
2023-05-09T22:06:22.075Z,7.76
2023-05-09T22:11:24.805Z,7.62
2023-05-09T22:16:27.706Z,7.50
2023-05-09T22:21:31.429Z,7.38
2023-05-09T22:26:34.241Z,7.27
2023-05-09T22:31:36.997Z,7.17
2023-05-09T22:36:39.880Z,7.07
2023-05-09T22:41:42.683Z,6.98
2023-05-09T22:46:45.385Z,6.88
2023-05-09T22:51:48.233Z,6.80
2023-05-09T22:56:51.143Z,6.68
2023-05-09T23:01:53.972Z,6.56
2023-05-09T23:06:56.753Z,6.48
2023-05-09T23:11:59.597Z,6.40
2023-05-09T23:17:02.461Z,6.33
2023-05-09T23:22:05.436Z,6.28
2023-05-09T23:27:08.343Z,6.22
2023-05-09T23:32:11.066Z,6.16
2023-05-09T23:37:13.844Z,6.09
2023-05-09T23:42:16.656Z,6.02
2023-05-09T23:47:19.361Z,5.92
2023-05-09T23:52:22.051Z,5.85
2023-05-09T23:57:24.897Z,5.79
